Time;durP1;ratioP1;P1;durP2;ratioP2;P2;SDS_P1;SDS_P2;PMS_P1;PMS_P2;Temp;Humidity;BMP_temperature;BMP_pressure;BME280_temperature;BME280_humidity;BME280_pressure;Samples;Min_cycle;Max_cycle;Signal;HPM_P1;HPM_P2
2023/10/18 00:02:17;;;;;;;;;;;;;;;5.25;100.00;101659.25;4932937;28;19991;-79
2023/10/18 00:05:05;;;;;;;;;;;;;;;5.21;100.00;101655.78;4919417;29;19986;-77
2023/10/18 00:07:57;;;;;;;;;;;;;;;5.19;100.00;101657.56;4933194;28;20682;-76
2023/10/18 00:10:43;;;;;;;;;;;;;;;5.15;100.00;101646.22;4933486;29;19927;-77
2023/10/18 00:13:30;;;;;;;;;;;;;;;5.09;100.00;101637.50;4908511;29;19966;-78
2023/10/18 00:16:17;;;;;;;;;;;;;;;5.04;100.00;101632.31;4933549;29;19958;-78
2023/10/18 00:19:02;;;;;;;;;;;;;;;5.01;100.00;101642.84;4917544;29;19926;-78
2023/10/18 00:21:48;;;;;;;;;;;;;;;4.93;100.00;101640.28;4903231;29;20493;-78
2023/10/18 00:24:34;;;;;;;;;;;;;;;4.89;100.00;101649.06;4920323;29;20774;-78
2023/10/18 00:27:20;;;;;;;;;;;;;;;4.84;100.00;101637.72;4919637;29;20349;-78
2023/10/18 00:30:07;;;;;;;;;;;;;;;4.80;100.00;101641.28;4933618;29;19993;-78
2023/10/18 00:32:53;;;;;;;;;;;;;;;4.74;100.00;101629.94;4920097;29;19947;-78
2023/10/18 00:35:41;;;;;;;;;;;;;;;4.69;100.00;101620.38;4918654;29;20461;-79
2023/10/18 00:38:28;;;;;;;;;;;;;;;4.62;100.00;101614.31;4914740;29;19983;-78
2023/10/18 00:41:21;;;;;;;;;;;;;;;4.56;100.00;101614.34;4917006;29;20477;-78
2023/10/18 00:44:12;;;;;;;;;;;;;;;4.51;100.00;101610.91;4930349;29;19935;-79
2023/10/18 00:46:57;;;;;;;;;;;;;;;4.45;100.00;101615.31;4934313;29;19942;-78
2023/10/18 00:49:43;;;;;;;;;;;;;;;4.43;100.00;101609.22;4918030;29;19930;-78
2023/10/18 00:52:30;;;;;;;;;;;;;;;4.40;100.00;101604.00;4932856;29;19954;-78
2023/10/18 00:55:19;;;;;;;;;;;;;;;4.37;100.00;101598.78;4920014;28;20390;-77
2023/10/18 00:58:08;;;;;;;;;;;;;;;4.37;100.00;101597.91;4917573;29;19949;-79
2023/10/18 01:00:56;;;;;;;;;;;;;;;4.37;100.00;101588.28;4929941;28;19934;-79
2023/10/18 01:03:45;;;;;;;;;;;;;;;4.38;100.00;101590.03;4932391;29;19926;-78
2023/10/18 01:06:32;;;;;;;;;;;;;;;4.40;100.00;101577.78;4936410;29;19934;-79
2023/10/18 01:09:18;;;;;;;;;;;;;;;4.41;100.00;101576.88;4920720;28;19926;-78
2023/10/18 01:12:04;;;;;;;;;;;;;;;4.44;100.00;101582.13;4918872;29;20053;-82
2023/10/18 01:14:50;;;;;;;;;;;;;;;4.47;100.00;101582.06;4935666;29;19923;-79
2023/10/18 01:17:42;;;;;;;;;;;;;;;4.51;100.00;101584.69;4910827;29;19938;-78
2023/10/18 01:20:40;;;;;;;;;;;;;;;4.55;100.00;101583.78;4919037;29;19927;-79
2023/10/18 01:23:27;;;;;;;;;;;;;;;4.59;100.00;101585.50;4930624;29;20086;-79
2023/10/18 01:26:13;;;;;;;;;;;;;;;4.61;100.00;101586.34;4930993;29;19927;-78
2023/10/18 01:29:03;;;;;;;;;;;;;;;4.64;100.00;101591.56;4933999;29;20013;-79
2023/10/18 01:31:49;;;;;;;;;;;;;;;4.64;100.00;101573.22;4937555;29;20473;-79
2023/10/18 01:34:37;;;;;;;;;;;;;;;4.66;100.00;101568.81;4932158;29;19946;-80
2023/10/18 01:37:22;;;;;;;;;;;;;;;4.69;100.00;101567.94;4920660;29;20370;-79
2023/10/18 01:40:20;;;;;;;;;;;;;;;4.70;100.00;101567.91;4920683;29;20276;-81
2023/10/18 01:43:06;;;;;;;;;;;;;;;4.71;100.00;101560.91;4921042;28;19940;-79
2023/10/18 01:45:52;;;;;;;;;;;;;;;4.72;100.00;101562.63;4931649;29;19928;-79
2023/10/18 01:48:37;;;;;;;;;;;;;;;4.72;100.00;101555.66;4931470;28;20286;-79
2023/10/18 01:51:24;;;;;;;;;;;;;;;4.73;100.00;101559.13;4916928;29;19941;-78
2023/10/18 01:54:15;;;;;;;;;;;;;;;4.71;100.00;101556.53;4919928;29;20001;-79
2023/10/18 01:57:01;;;;;;;;;;;;;;;4.73;100.00;101549.50;4934751;29;19930;-78
2023/10/18 01:59:48;;;;;;;;;;;;;;;4.74;100.00;101539.91;4922387;29;19935;-78
2023/10/18 02:02:34;;;;;;;;;;;;;;;4.74;100.00;101532.03;4919563;29;19957;-79
2023/10/18 02:05:21;;;;;;;;;;;;;;;4.74;100.00;101529.41;4937980;28;19931;-78
2023/10/18 02:08:06;;;;;;;;;;;;;;;4.75;100.00;101529.38;4910473;29;20317;-78
2023/10/18 02:10:53;;;;;;;;;;;;;;;4.77;100.00;101537.22;4935339;29;19926;-80
2023/10/18 02:13:39;;;;;;;;;;;;;;;4.77;100.00;101526.75;4926381;29;20029;-79
2023/10/18 02:16:25;;;;;;;;;;;;;;;4.79;100.00;101529.34;4935468;29;19927;-79
2023/10/18 02:19:10;;;;;;;;;;;;;;;4.80;100.00;101517.97;4909065;28;19934;-78
2023/10/18 02:21:57;;;;;;;;;;;;;;;4.81;100.00;101524.94;4915431;29;19935;-79
2023/10/18 02:24:44;;;;;;;;;;;;;;;4.80;100.00;101513.56;4932832;29;19927;-78
2023/10/18 02:27:30;;;;;;;;;;;;;;;4.79;100.00;101517.09;4920495;28;19974;-79
2023/10/18 02:30:17;;;;;;;;;;;;;;;4.79;100.00;101513.63;4936255;28;20601;-78
2023/10/18 02:33:04;;;;;;;;;;;;;;;4.79;100.00;101505.75;4936901;28;19935;-79
2023/10/18 02:35:52;;;;;;;;;;;;;;;4.77;100.00;101503.13;4936934;29;19934;-79
2023/10/18 02:38:38;;;;;;;;;;;;;;;4.78;100.00;101501.38;4936768;29;19927;-78
2023/10/18 02:41:27;;;;;;;;;;;;;;;4.76;100.00;101507.50;4913450;29;19933;-79
2023/10/18 02:44:21;;;;;;;;;;;;;;;4.74;100.00;101508.41;4934983;29;19934;-79
2023/10/18 02:47:16;;;;;;;;;;;;;;;4.71;100.00;101509.31;4920570;29;19937;-78
2023/10/18 02:50:01;;;;;;;;;;;;;;;4.71;100.00;101514.56;4935061;28;19935;-78
2023/10/18 02:52:53;;;;;;;;;;;;;;;4.69;100.00;101511.06;4934148;28;19930;-79
2023/10/18 02:55:40;;;;;;;;;;;;;;;4.69;100.00;101507.59;4933710;28;19941;-79
2023/10/18 02:58:32;;;;;;;;;;;;;;;4.68;100.00;101504.09;4935364;29;19927;-78
2023/10/18 03:01:21;;;;;;;;;;;;;;;4.67;100.00;101497.09;4937394;28;19938;-78
2023/10/18 03:04:16;;;;;;;;;;;;;;;4.66;100.00;101489.25;4920945;29;19931;-78
2023/10/18 03:07:02;;;;;;;;;;;;;;;4.64;100.00;101485.78;4920955;29;20546;-78
2023/10/18 03:09:49;;;;;;;;;;;;;;;4.60;100.00;101474.44;4923710;29;19954;-78
2023/10/18 03:12:36;;;;;;;;;;;;;;;4.58;100.00;101473.59;4937609;29;19982;-79
2023/10/18 03:15:23;;;;;;;;;;;;;;;4.55;100.00;101474.50;4936201;29;19930;-78
2023/10/18 03:18:15;;;;;;;;;;;;;;;4.52;100.00;101473.66;4933557;29;20052;-78
2023/10/18 03:21:04;;;;;;;;;;;;;;;4.50;100.00;101465.81;4923632;28;19938;-78
2023/10/18 03:23:51;;;;;;;;;;;;;;;4.49;100.00;101462.28;4910046;29;19951;-79
2023/10/18 03:26:37;;;;;;;;;;;;;;;4.48;100.00;101463.19;4902867;29;20395;-79
2023/10/18 03:29:23;;;;;;;;;;;;;;;4.47;100.00;101461.44;4900996;29;19931;-78
2023/10/18 03:32:14;;;;;;;;;;;;;;;4.48;100.00;101452.69;4912420;29;20854;-80
2023/10/18 03:34:59;;;;;;;;;;;;;;;4.47;100.00;101447.50;4898321;29;19939;-80
2023/10/18 03:37:48;;;;;;;;;;;;;;;4.47;100.00;101447.50;4901880;29;19936;-79
2023/10/18 03:40:37;;;;;;;;;;;;;;;4.45;100.00;101442.25;4913792;29;19934;-78
2023/10/18 03:43:26;;;;;;;;;;;;;;;4.42;100.00;101439.66;4896988;29;19930;-79
2023/10/18 03:46:29;;;;;;;;;;;;;;;4.38;100.00;101440.59;4897286;29;19935;-78
2023/10/18 03:49:31;;;;;;;;;;;;;;;4.34;100.00;101429.25;4881372;29;19932;-78
2023/10/18 03:52:17;;;;;;;;;;;;;;;4.32;100.00;101423.13;4905264;29;19939;-76
2023/10/18 03:55:36;;;;;;;;;;;;;;;4.30;100.00;101411.81;4895726;29;20474;-78
2023/10/18 03:58:26;;;;;;;;;;;;;;;4.29;100.00;101411.81;4905189;29;19927;-80
2023/10/18 04:01:12;;;;;;;;;;;;;;;4.28;100.00;101410.06;4897211;29;20014;-78
2023/10/18 04:04:00;;;;;;;;;;;;;;;4.26;100.00;101401.38;4899422;29;19935;-78
2023/10/18 04:06:49;;;;;;;;;;;;;;;4.26;100.00;101396.13;4897820;29;20484;-78
2023/10/18 04:09:35;;;;;;;;;;;;;;;4.26;100.00;101394.41;4893065;29;19939;-80
2023/10/18 04:12:22;;;;;;;;;;;;;;;4.28;100.00;101394.34;4887692;29;19939;-79
2023/10/18 04:15:45;;;;;;;;;;;;;;;4.28;100.00;101396.97;4905939;29;20379;-78
2023/10/18 04:18:35;;;;;;;;;;;;;;;4.30;100.00;101387.38;4885528;29;19931;-79
2023/10/18 04:21:25;;;;;;;;;;;;;;;4.33;100.00;101376.81;4900623;29;20379;-78
2023/10/18 04:24:11;;;;;;;;;;;;;;;4.37;100.00;101382.91;4936899;29;19935;-77
2023/10/18 04:26:57;;;;;;;;;;;;;;;4.40;100.00;101368.00;4936005;29;19934;-79
2023/10/18 04:29:47;;;;;;;;;;;;;;;4.42;100.00;101365.38;4921664;29;20935;-79
2023/10/18 04:32:32;;;;;;;;;;;;;;;4.44;100.00;101361.84;4935044;29;20395;-78
2023/10/18 04:35:25;;;;;;;;;;;;;;;4.44;100.00;101354.00;4936700;29;19931;-80
2023/10/18 04:38:29;;;;;;;;;;;;;;;4.45;100.00;101360.97;4933575;29;19941;-80
2023/10/18 04:41:31;;;;;;;;;;;;;;;4.49;100.00;101356.56;4935311;28;19935;-79
2023/10/18 04:44:24;;;;;;;;;;;;;;;4.51;100.00;101349.53;4936393;29;20310;-79
2023/10/18 04:47:18;;;;;;;;;;;;;;;4.54;100.00;101348.63;4936092;28;20018;-78
2023/10/18 04:50:04;;;;;;;;;;;;;;;4.54;100.00;101352.13;4917149;29;19953;-78
2023/10/18 04:52:50;;;;;;;;;;;;;;;4.52;100.00;101345.16;4935078;28;19939;-79
2023/10/18 04:55:41;;;;;;;;;;;;;;;4.49;100.00;101331.19;4918795;29;19985;-78
2023/10/18 04:58:29;;;;;;;;;;;;;;;4.48;100.00;101332.06;4918886;29;19934;-79
2023/10/18 05:01:16;;;;;;;;;;;;;;;4.48;100.00;101331.22;4935113;28;20398;-78
2023/10/18 05:04:20;;;;;;;;;;;;;;;4.47;100.00;101313.75;4918286;29;19931;-80
2023/10/18 05:07:15;;;;;;;;;;;;;;;4.45;100.00;101313.75;4934499;29;19926;-78
2023/10/18 05:10:05;;;;;;;;;;;;;;;4.45;100.00;101308.53;4935502;29;19969;-78
2023/10/18 05:13:01;;;;;;;;;;;;;;;4.46;100.00;101294.53;4919075;29;19930;-78
2023/10/18 05:15:51;;;;;;;;;;;;;;;4.45;100.00;101291.91;4933087;29;19957;-78
2023/10/18 05:18:37;;;;;;;;;;;;;;;4.43;100.00;101294.56;4930393;29;19931;-77
2023/10/18 05:21:22;;;;;;;;;;;;;;;4.42;100.00;101294.59;4913487;29;19930;-79
2023/10/18 05:24:10;;;;;;;;;;;;;;;4.43;100.00;101293.69;4900221;29;21400;-79
2023/10/18 05:26:56;;;;;;;;;;;;;;;4.41;100.00;101291.09;4906742;29;19942;-78
2023/10/18 05:29:43;;;;;;;;;;;;;;;4.40;100.00;101286.72;4904270;29;19942;-78
2023/10/18 05:35:35;;;;;;;;;;;;;;;4.40;100.00;101281.50;4896073;29;19926;-78
2023/10/18 05:38:47;;;;;;;;;;;;;;;4.39;100.00;101281.50;4904034;28;19990;-79
2023/10/18 05:44:13;;;;;;;;;;;;;;;4.37;100.00;101271.06;4897291;29;19938;-76
2023/10/18 05:46:59;;;;;;;;;;;;;;;4.36;100.00;101266.66;4913143;28;19926;-78
2023/10/18 05:49:45;;;;;;;;;;;;;;;4.37;100.00;101272.78;4904032;29;19934;-81
2023/10/18 05:52:37;;;;;;;;;;;;;;;4.35;100.00;101264.94;4903722;28;19927;-79
2023/10/18 05:55:23;;;;;;;;;;;;;;;4.35;100.00;101271.06;4905370;29;19931;-80
2023/10/18 05:58:08;;;;;;;;;;;;;;;4.37;100.00;101259.69;4921600;28;20418;-80
2023/10/18 06:00:57;;;;;;;;;;;;;;;4.39;100.00;101256.16;4908603;29;19934;-79
2023/10/18 06:03:43;;;;;;;;;;;;;;;4.39;100.00;101244.78;4910766;29;19931;-79
2023/10/18 06:06:30;;;;;;;;;;;;;;;4.38;100.00;101246.56;4913158;29;19983;-78
2023/10/18 06:09:26;;;;;;;;;;;;;;;4.39;100.00;101240.44;4915260;29;19973;-78
2023/10/18 06:12:22;;;;;;;;;;;;;;;4.39;100.00;101235.19;4913941;28;20029;-78
2023/10/18 06:15:11;;;;;;;;;;;;;;;4.41;100.00;101232.56;4911889;29;20021;-78
2023/10/18 06:18:00;;;;;;;;;;;;;;;4.41;100.00;101228.16;4911784;29;20423;-79
2023/10/18 06:20:52;;;;;;;;;;;;;;;4.42;100.00;101229.03;4904112;29;19942;-78
2023/10/18 06:23:38;;;;;;;;;;;;;;;4.43;100.00;101225.53;4918485;28;19934;-79
2023/10/18 06:26:33;;;;;;;;;;;;;;;4.42;100.00;101216.78;4931004;28;19951;-79
2023/10/18 06:29:24;;;;;;;;;;;;;;;4.43;100.00;101210.66;4929757;29;19926;-79
2023/10/18 06:32:13;;;;;;;;;;;;;;;4.44;100.00;101215.03;4918738;29;19930;-79
2023/10/18 06:34:58;;;;;;;;;;;;;;;4.48;100.00;101218.47;4932469;29;19930;-79
2023/10/18 06:37:45;;;;;;;;;;;;;;;4.48;100.00;101216.69;4935183;28;19945;-79
2023/10/18 06:40:43;;;;;;;;;;;;;;;4.50;100.00;101227.16;4905357;29;20361;-79
2023/10/18 06:43:29;;;;;;;;;;;;;;;4.52;100.00;101219.28;4933569;29;19931;-81
2023/10/18 06:46:27;;;;;;;;;;;;;;;4.53;100.00;101213.16;4918203;29;19931;-79
2023/10/18 06:49:13;;;;;;;;;;;;;;;4.55;100.00;101219.22;4920609;29;19958;-80
2023/10/18 06:52:00;;;;;;;;;;;;;;;4.57;100.00;101218.31;4917061;28;19930;-80
2023/10/18 06:54:46;;;;;;;;;;;;;;;4.62;100.00;101226.13;4931865;29;20017;-79
2023/10/18 06:57:35;;;;;;;;;;;;;;;4.63;100.00;101225.22;4933366;28;19973;-79
2023/10/18 07:00:21;;;;;;;;;;;;;;;4.66;100.00;101214.72;4933902;29;19933;-79
2023/10/18 07:03:08;;;;;;;;;;;;;;;4.70;100.00;101212.91;4916595;29;20721;-80
2023/10/18 07:05:54;;;;;;;;;;;;;;;4.72;100.00;101212.00;4930746;29;20551;-80
2023/10/18 07:08:44;;;;;;;;;;;;;;;4.76;100.00;101208.41;4918641;28;19927;-80
2023/10/18 07:11:31;;;;;;;;;;;;;;;4.80;100.00;101200.50;4916152;28;21194;-80
2023/10/18 07:14:19;;;;;;;;;;;;;;;4.83;100.00;101206.59;4931122;28;19973;-79
2023/10/18 07:17:09;;;;;;;;;;;;;;;4.85;100.00;101212.66;4916089;29;19931;-79
2023/10/18 07:19:58;;;;;;;;;;;;;;;4.88;100.00;101196.88;4932732;29;19937;-79
2023/10/18 07:22:44;;;;;;;;;;;;;;;4.92;100.00;101207.31;4921067;29;19930;-79
2023/10/18 07:25:32;;;;;;;;;;;;;;;4.95;100.00;101192.38;4919115;29;19949;-80
2023/10/18 07:28:21;;;;;;;;;;;;;;;4.99;100.00;101188.84;4933717;29;20406;-80
2023/10/18 07:31:10;;;;;;;;;;;;;;;5.03;100.00;101185.25;4911480;29;19934;-81
2023/10/18 07:34:02;;;;;;;;;;;;;;;5.09;100.00;101183.41;4919670;28;19950;-80
2023/10/18 07:36:48;;;;;;;;;;;;;;;5.13;100.00;101180.72;4920929;29;19930;-80
2023/10/18 07:39:35;;;;;;;;;;;;;;;5.18;100.00;101177.16;4924977;29;19934;-80
2023/10/18 07:42:21;;;;;;;;;;;;;;;5.23;100.00;101167.44;4925961;29;19927;-80
2023/10/18 07:45:08;;;;;;;;;;;;;;;5.27;100.00;101167.34;4935031;29;20584;-79
2023/10/18 07:47:56;;;;;;;;;;;;;;;5.34;100.00;101167.25;4936065;28;20381;-80
2023/10/18 07:50:42;;;;;;;;;;;;;;;5.39;100.00;101160.16;4941519;28;20021;-82
2023/10/18 07:53:28;;;;;;;;;;;;;;;5.43;100.00;101161.81;4925502;29;19938;-82
2023/10/18 07:56:16;;;;;;;;;;;;;;;5.48;100.00;101164.34;4943056;29;19964;-82
2023/10/18 08:05:08;;;;;;;;;;;;;;;5.64;100.00;101149.16;4936220;29;19927;-82
2023/10/18 08:08:08;;;;;;;;;;;;;;;5.69;100.00;101147.31;4937872;28;20397;-83
2023/10/18 08:10:59;;;;;;;;;;;;;;;5.74;100.00;101140.22;4926223;29;20021;-84
2023/10/18 08:13:47;;;;;;;;;;;;;;;5.78;100.00;101136.59;4923096;29;19947;-83
2023/10/18 08:16:43;;;;;;;;;;;;;;;5.84;100.00;101136.47;4929140;28;19934;-83
2023/10/18 08:19:32;;;;;;;;;;;;;;;5.90;100.00;101124.13;4937910;29;19927;-83
2023/10/18 08:25:03;;;;;;;;;;;;;;;5.98;100.00;101116.91;4939630;29;19942;-84
2023/10/18 08:27:52;;;;;;;;;;;;;;;6.03;100.00;101120.34;4922523;29;20068;-85
2023/10/18 08:33:26;;;;;;;;;;;;;;;6.13;100.00;101110.50;4921109;29;20010;-85
2023/10/18 08:36:16;;;;;;;;;;;;;;;6.19;100.00;101114.75;4923168;29;19930;-85
2023/10/18 08:39:02;;;;;;;;;;;;;;;6.25;100.00;101109.34;4925932;29;19927;-85
2023/10/18 08:41:56;;;;;;;;;;;;;;;6.30;100.00;101101.34;4941341;29;20374;-85
2023/10/18 08:44:41;;;;;;;;;;;;;;;6.35;100.00;101102.13;4928411;28;20654;-86
2023/10/18 08:47:29;;;;;;;;;;;;;;;6.38;100.00;101100.28;4943774;28;19934;-85
2023/10/18 08:50:16;;;;;;;;;;;;;;;6.42;100.00;101090.53;4927804;29;19941;-86
2023/10/18 08:53:03;;;;;;;;;;;;;;;6.47;100.00;101096.56;4919728;29;19993;-85
2023/10/18 08:55:51;;;;;;;;;;;;;;;6.52;100.00;101085.91;4906386;29;19941;-85
2023/10/18 08:58:37;;;;;;;;;;;;;;;6.55;100.00;101087.63;4924301;29;20876;-86
2023/10/18 09:01:23;;;;;;;;;;;;;;;6.59;100.00;101082.25;4924465;28;19937;-86
2023/10/18 09:04:09;;;;;;;;;;;;;;;6.64;100.00;101075.09;4926093;29;20310;-86
2023/10/18 09:06:55;;;;;;;;;;;;;;;6.67;100.00;101068.91;4938410;29;21635;-84
2023/10/18 09:09:42;;;;;;;;;;;;;;;6.71;100.00;101069.69;4924401;29;20374;-84
2023/10/18 09:15:34;;;;;;;;;;;;;;;6.81;100.00;101057.16;4927832;29;20013;-84
2023/10/18 09:18:23;;;;;;;;;;;;;;;6.85;100.00;101056.16;4925061;28;19934;-85
2023/10/18 09:21:36;;;;;;;;;;;;;;;6.90;100.00;101051.63;4924383;28;19929;-86
2023/10/18 09:24:15;;;;;;;;;;;;;;;6.96;100.00;101045.34;4939951;29;20291;-83
2023/10/18 09:27:01;;;;;;;;;;;;;;;6.99;100.00;101037.38;4938615;29;20494;-84
2023/10/18 09:29:46;;;;;;;;;;;;;;;7.04;100.00;101028.44;4925968;29;19927;-84
2023/10/18 09:32:32;;;;;;;;;;;;;;;7.10;100.00;101035.31;4924711;29;20025;-86
2023/10/18 09:35:26;;;;;;;;;;;;;;;7.17;100.00;101036.88;4942570;28;20018;-86
2023/10/18 09:38:12;;;;;;;;;;;;;;;7.23;100.00;101035.81;4919451;29;19927;-85
2023/10/18 09:40:59;;;;;;;;;;;;;;;7.29;100.00;101034.78;4939864;29;19934;-85
2023/10/18 09:43:46;;;;;;;;;;;;;;;7.34;100.00;101033.75;4911980;29;19926;-85
2023/10/18 09:46:35;;;;;;;;;;;;;;;7.39;100.00;101015.16;4940527;28;19926;-85
2023/10/18 09:49:25;;;;;;;;;;;;;;;7.46;100.00;101016.72;4925555;29;22063;-85
2023/10/18 09:52:12;;;;;;;;;;;;;;;7.53;100.00;101008.63;4910500;28;19954;-82
2023/10/18 09:54:59;;;;;;;;;;;;;;;7.56;100.00;101005.88;4907816;29;20562;-85
2023/10/18 09:57:59;;;;;;;;;;;;;;;7.57;100.00;100995.31;4924763;28;19938;-85
2023/10/18 10:00:55;;;;;;;;;;;;;;;7.63;100.00;100985.50;4922165;29;19934;-86
2023/10/18 10:03:44;;;;;;;;;;;;;;;7.68;100.00;100973.06;4926210;29;19934;-82
2023/10/18 10:06:34;;;;;;;;;;;;;;;7.72;100.00;100974.66;4920569;29;19930;-85
2023/10/18 10:09:29;;;;;;;;;;;;;;;7.75;100.00;100964.88;4919507;29;19937;-82
2023/10/18 10:12:15;;;;;;;;;;;;;;;7.81;100.00;100968.25;4908330;29;19952;-84
2023/10/18 10:15:01;;;;;;;;;;;;;;;7.88;100.00;100964.50;4924959;29;19930;-84
2023/10/18 10:17:55;;;;;;;;;;;;;;;7.95;100.00;100960.75;4927615;29;19937;-83
2023/10/18 10:20:42;;;;;;;;;;;;;;;7.98;100.00;100954.53;4942692;29;19922;-84
2023/10/18 10:23:35;;;;;;;;;;;;;;;8.02;100.00;100948.25;4930260;29;20797;-84
2023/10/18 10:26:31;;;;;;;;;;;;;;;8.08;100.00;100942.78;4926100;29;19927;-85
2023/10/18 10:32:16;;;;;;;;;;;;;;;8.19;100.00;100931.84;4943949;29;21734;-86
2023/10/18 10:35:32;;;;;;;;;;;;;;;8.25;100.00;100934.28;4924464;29;20017;-86
2023/10/18 10:38:19;;;;;;;;;;;;;;;8.33;100.00;100922.59;4942017;29;20014;-86
2023/10/18 10:41:19;;;;;;;;;;;;;;;8.38;100.00;100920.66;4925493;29;19931;-84
2023/10/18 10:44:08;;;;;;;;;;;;;;;8.44;100.00;100917.78;4925040;28;20314;-86
2023/10/18 10:47:12;;;;;;;;;;;;;;;8.49;100.00;100910.59;4941654;29;19927;-86
2023/10/18 10:49:59;;;;;;;;;;;;;;;8.54;100.00;100898.13;4924235;29;19926;-82
2023/10/18 10:52:44;;;;;;;;;;;;;;;8.60;100.00;100896.19;4919580;29;20013;-84
2023/10/18 10:55:30;;;;;;;;;;;;;;;8.63;100.00;100888.16;4920766;28;19926;-83
2023/10/18 10:58:19;;;;;;;;;;;;;;;8.68;100.00;100876.50;4935108;29;20309;-88
2023/10/18 11:01:06;;;;;;;;;;;;;;;8.74;100.00;100879.84;4921617;29;20021;-84
2023/10/18 11:03:59;;;;;;;;;;;;;;;8.79;100.00;100872.59;4920445;29;19930;-85
2023/10/18 11:06:46;;;;;;;;;;;;;;;8.85;100.00;100872.38;4922150;29;19927;-86
2023/10/18 11:09:32;;;;;;;;;;;;;;;8.91;100.00;100860.72;4919368;29;21842;-84
2023/10/18 11:12:24;;;;;;;;;;;;;;;8.95;100.00;100862.31;4922631;28;20021;-83
2023/10/18 11:15:21;;;;;;;;;;;;;;;8.99;100.00;100848.06;4922243;29;19930;-86
2023/10/18 11:18:20;;;;;;;;;;;;;;;9.03;100.00;100848.81;4923794;28;19938;-84
2023/10/18 11:21:19;;;;;;;;;;;;;;;9.07;100.00;100842.50;4934386;29;19926;-79
2023/10/18 11:24:05;;;;;;;;;;;;;;;9.12;100.00;100848.47;4908066;29;20034;-82
2023/10/18 11:26:54;;;;;;;;;;;;;;;9.16;100.00;100836.84;4936294;29;19938;-81
2023/10/18 11:29:41;;;;;;;;;;;;;;;9.20;100.00;100837.59;4937209;29;19930;-81
2023/10/18 11:32:30;;;;;;;;;;;;;;;9.24;100.00;100821.56;4913872;29;19963;-81
2023/10/18 11:38:25;;;;;;;;;;;;;;;9.26;100.00;100808.28;4939204;29;20657;-82
2023/10/18 11:41:11;;;;;;;;;;;;;;;9.24;100.00;100795.16;4913748;29;19934;-82
2023/10/18 11:43:57;;;;;;;;;;;;;;;9.27;100.00;100794.19;4941894;28;19930;-82
2023/10/18 11:46:46;;;;;;;;;;;;;;;9.29;100.00;100773.81;4938135;29;19927;-79
2023/10/18 11:49:38;;;;;;;;;;;;;;;9.31;100.00;100773.78;4938435;28;19930;-80
2023/10/18 11:52:25;;;;;;;;;;;;;;;9.32;100.00;100755.19;4940404;29;20618;-81
2023/10/18 11:55:10;;;;;;;;;;;;;;;9.34;100.00;100758.66;4938523;29;20423;-81
2023/10/18 11:58:07;;;;;;;;;;;;;;;9.37;100.00;100753.22;4938283;29;19935;-81
2023/10/18 12:01:00;;;;;;;;;;;;;;;9.40;100.00;100735.50;4924106;29;19927;-82
2023/10/18 12:03:48;;;;;;;;;;;;;;;9.41;100.00;100731.97;4937507;29;20093;-82
2023/10/18 12:06:34;;;;;;;;;;;;;;;9.41;100.00;100719.59;4939323;28;19980;-81
2023/10/18 12:12:07;;;;;;;;;;;;;;;9.46;100.00;100708.81;4938370;29;19941;-82
2023/10/18 12:14:53;;;;;;;;;;;;;;;9.50;100.00;100689.28;4944072;28;20477;-81
2023/10/18 12:17:38;;;;;;;;;;;;;;;9.51;100.00;100680.44;4942515;29;20029;-82
2023/10/18 12:20:34;;;;;;;;;;;;;;;9.54;100.00;100680.31;4932827;29;19937;-79
2023/10/18 12:23:20;;;;;;;;;;;;;;;9.57;100.00;100680.16;4936200;29;19937;-80
2023/10/18 12:26:06;;;;;;;;;;;;;;;9.57;100.00;100666.94;4941125;29;19930;-80
2023/10/18 12:28:52;;;;;;;;;;;;;;;9.60;100.00;100661.50;4942515;29;20006;-82
2023/10/18 12:31:41;;;;;;;;;;;;;;;9.62;100.00;100646.47;4942100;28;20302;-80
2023/10/18 12:34:29;;;;;;;;;;;;;;;9.62;100.00;100638.53;4945325;28;19938;-79
2023/10/18 12:37:17;;;;;;;;;;;;;;;9.65;100.00;100633.09;4945903;29;20017;-82
2023/10/18 12:40:14;;;;;;;;;;;;;;;9.71;100.00;100631.97;4941504;28;21235;-80
2023/10/18 12:43:17;;;;;;;;;;;;;;;9.75;100.00;100620.31;4941590;29;19927;-83
2023/10/18 12:46:04;;;;;;;;;;;;;;;9.79;100.00;100615.75;4935929;28;19953;-81
2023/10/18 12:48:51;;;;;;;;;;;;;;;9.83;100.00;100609.41;4925231;29;20009;-82
2023/10/18 12:51:42;;;;;;;;;;;;;;;9.85;100.00;100604.03;4911139;29;20017;-84
2023/10/18 12:54:34;;;;;;;;;;;;;;;9.90;100.00;100608.19;4940129;28;19941;-82
2023/10/18 12:57:20;;;;;;;;;;;;;;;9.99;100.00;100606.91;4937213;29;20075;-83
2023/10/18 13:00:24;;;;;;;;;;;;;;;10.03;100.00;100600.53;4910402;29;20406;-83
2023/10/18 13:05:58;;;;;;;;;;;;;;;10.13;100.00;100581.59;4923243;29;19927;-83
2023/10/18 13:08:56;;;;;;;;;;;;;;;10.15;100.00;100582.38;4938852;29;20591;-82
2023/10/18 13:14:39;;;;;;;;;;;;;;;10.16;100.00;100555.84;4937541;29;19931;-82
2023/10/18 13:17:25;;;;;;;;;;;;;;;10.16;100.00;100561.16;4925169;29;20594;-81
2023/10/18 13:20:15;;;;;;;;;;;;;;;10.16;100.00;100571.72;4940009;28;19931;-81
2023/10/18 13:23:01;;;;;;;;;;;;;;;10.17;100.00;100560.22;4912004;29;19927;-82
2023/10/18 13:25:51;;;;;;;;;;;;;;;10.21;100.00;100558.28;4914666;29;19923;-81
2023/10/18 13:28:51;;;;;;;;;;;;;;;10.24;100.00;100547.53;4913128;29;20413;-83
2023/10/18 13:31:36;;;;;;;;;;;;;;;10.26;100.00;100542.16;4912850;28;20073;-83
2023/10/18 13:34:22;;;;;;;;;;;;;;;10.26;100.00;100535.09;4914337;29;19943;-83
2023/10/18 13:37:14;;;;;;;;;;;;;;;10.25;100.00;100527.22;4903638;29;20085;-83
2023/10/18 13:39:59;;;;;;;;;;;;;;;10.23;100.00;100527.28;4903400;29;20399;-84
2023/10/18 13:42:45;;;;;;;;;;;;;;;10.24;100.00;100528.16;4904516;29;19932;-83
2023/10/18 13:45:33;;;;;;;;;;;;;;;10.22;100.00;100522.94;4915765;29;19931;-83
2023/10/18 13:48:19;;;;;;;;;;;;;;;10.21;100.00;100513.28;4901589;29;20320;-83
2023/10/18 13:51:05;;;;;;;;;;;;;;;10.18;100.00;100502.84;4894088;29;19927;-84
2023/10/18 13:53:51;;;;;;;;;;;;;;;10.14;100.00;100504.78;4891791;29;19954;-83
2023/10/18 13:56:37;;;;;;;;;;;;;;;10.14;100.00;100494.22;4897653;28;19934;-83
2023/10/18 13:59:25;;;;;;;;;;;;;;;10.12;100.00;100493.44;4908055;29;19934;-83
2023/10/18 14:02:17;;;;;;;;;;;;;;;10.12;100.00;100485.50;4891993;29;19935;-83
2023/10/18 14:05:07;;;;;;;;;;;;;;;10.12;100.00;100479.34;4899840;29;19931;-82
2023/10/18 14:07:53;;;;;;;;;;;;;;;10.13;100.00;100470.50;4903972;29;19963;-81
2023/10/18 14:10:41;;;;;;;;;;;;;;;10.13;100.00;100471.34;4901630;29;19978;-81
2023/10/18 14:13:27;;;;;;;;;;;;;;;10.14;100.00;100461.63;4900314;29;19931;-81
2023/10/18 14:16:16;;;;;;;;;;;;;;;10.13;100.00;100452.81;4911198;28;19966;-83
2023/10/18 14:19:02;;;;;;;;;;;;;;;10.11;100.00;100446.75;4907025;29;19962;-82
2023/10/18 14:21:48;;;;;;;;;;;;;;;10.09;100.00;100440.69;4902040;29;21496;-83
2023/10/18 14:24:34;;;;;;;;;;;;;;;10.08;100.00;100435.47;4897338;29;20503;-81
2023/10/18 14:27:20;;;;;;;;;;;;;;;10.07;100.00;100428.47;4889937;29;19958;-82
2023/10/18 14:30:12;;;;;;;;;;;;;;;10.05;100.00;100426.78;4897792;29;20014;-83
2023/10/18 14:33:03;;;;;;;;;;;;;;;10.06;100.00;100427.59;4905175;29;19931;-82
2023/10/18 14:35:49;;;;;;;;;;;;;;;10.06;100.00;100424.97;4890748;29;21743;-84
2023/10/18 14:38:35;;;;;;;;;;;;;;;10.06;100.00;100419.69;4898438;29;19959;-81
2023/10/18 14:41:22;;;;;;;;;;;;;;;10.04;100.00;100419.75;4900809;28;19926;-81
2023/10/18 14:44:07;;;;;;;;;;;;;;;10.04;100.00;100405.69;4905199;29;19927;-82
2023/10/18 14:46:55;;;;;;;;;;;;;;;10.01;100.00;100395.25;4879762;29;20473;-82
2023/10/18 14:49:40;;;;;;;;;;;;;;;9.99;100.00;100375.97;4896762;29;19930;-82
2023/10/18 14:52:26;;;;;;;;;;;;;;;9.98;100.00;100368.97;4896232;29;19935;-83
2023/10/18 14:55:12;;;;;;;;;;;;;;;9.94;100.00;100372.69;4893856;29;20449;-82
2023/10/18 14:57:58;;;;;;;;;;;;;;;9.90;100.00;100371.97;4895961;29;22098;-82
2023/10/18 15:00:46;;;;;;;;;;;;;;;9.86;100.00;100368.63;4897209;29;20395;-84
2023/10/18 15:03:31;;;;;;;;;;;;;;;9.83;100.00;100366.16;4890801;29;19998;-81